Time,TemperatureF,DewpointF,PressureIn,WindDirection,WindDirectionDegrees,WindSpeedMPH,WindSpeedGustMPH,Humidity,HourlyPrecipIn,Conditions,Clouds,dailyrainin,SoftwareType,DateUTC
2013-07-01 00:00:00,61.0,49.0,-100.00,East,101,3.0,9.0,64,0.00,,,-99.99,,2013-07-01 07:00:00,
2013-07-01 01:00:00,61.0,43.0,-100.00,East,98,1.0,3.0,52,0.00,,,-99.99,,2013-07-01 08:00:00,
2013-07-01 02:00:00,61.0,36.0,-100.00,East,100,2.0,6.0,39,0.00,,,-99.99,,2013-07-01 09:00:00,
2013-07-01 02:53:00,61.0,36.0,-100.00,East,100,2.0,6.0,39,0.00,,,-99.99,,2013-07-01 09:53:00,
2013-07-01 03:00:00,61.0,37.0,-100.00,East,97,2.0,5.0,41,0.00,,,-99.99,,2013-07-01 10:00:00,
2013-07-01 03:52:00,61.0,37.0,-100.00,East,97,2.0,5.0,41,0.00,,,-99.99,,2013-07-01 10:52:00,
2013-07-01 04:00:00,61.0,44.0,-100.00,East,100,1.0,5.0,54,0.00,,,-99.99,,2013-07-01 11:00:00,
2013-07-01 04:52:00,61.0,44.0,-100.00,East,100,1.0,5.0,54,0.00,,,-99.99,,2013-07-01 11:52:00,
2013-07-01 05:00:00,61.0,45.0,-100.00,East,101,1.0,5.0,56,0.00,,,-99.99,,2013-07-01 12:00:00,
2013-07-01 05:53:00,61.0,45.0,-100.00,East,101,1.0,5.0,56,0.00,,,-99.99,,2013-07-01 12:53:00,
2013-07-01 06:00:00,62.0,49.0,-100.00,ESE,103,3.0,9.0,62,0.00,,,-99.99,,2013-07-01 13:00:00,
2013-07-01 07:00:00,62.0,48.0,-100.00,ESE,103,5.0,12.0,60,0.00,,,-99.99,,2013-07-01 14:00:00,
2013-07-01 08:00:00,63.0,48.0,-100.00,East,101,3.0,9.0,59,0.00,,,-99.99,,2013-07-01 15:00:00,
2013-07-01 08:53:00,63.0,48.0,-100.00,East,101,3.0,9.0,59,0.00,,,-99.99,,2013-07-01 15:53:00,
2013-07-01 09:00:00,62.0,47.0,-100.00,East,99,5.0,13.0,58,0.00,,,-99.99,,2013-07-01 16:00:00,
2013-07-01 09:53:00,62.0,47.0,-100.00,East,99,5.0,13.0,58,0.00,,,-99.99,,2013-07-01 16:53:00,
2013-07-01 10:00:00,63.0,48.0,-100.00,ESE,106,2.0,12.0,59,0.00,,,-99.99,,2013-07-01 17:00:00,
2013-07-01 10:53:00,63.0,48.0,-100.00,ESE,106,2.0,12.0,59,0.00,,,-99.99,,2013-07-01 17:53:00,
2013-07-01 11:00:00,68.0,49.0,-100.00,ESE,106,3.0,8.0,51,0.02,,,-99.99,,2013-07-01 18:00:00,
2013-07-01 12:00:00,69.0,51.0,-100.00,ESE,104,1.0,5.0,52,0.00,,,-99.99,,2013-07-01 19:00:00,
2013-07-01 12:53:00,69.0,51.0,-100.00,ESE,104,1.0,5.0,52,0.00,,,-99.99,,2013-07-01 19:53:00,
2013-07-01 13:00:00,74.0,51.0,-100.00,North,0,0.0,2.0,45,0.00,,,-99.99,,2013-07-01 20:00:00,
2013-07-01 14:00:00,78.0,48.0,-100.00,North,0,0.0,1.0,35,0.00,,,-99.99,,2013-07-01 21:00:00,
2013-07-01 15:00:00,80.0,48.0,-100.00,North,0,0.0,2.0,33,0.00,,,-99.99,,2013-07-01 22:00:00,
2013-07-01 15:53:00,80.0,48.0,-100.00,North,0,0.0,2.0,33,0.00,,,-99.99,,2013-07-01 22:53:00,
2013-07-01 16:00:00,80.0,48.0,-100.00,North,0,0.0,2.0,33,0.00,,,-99.99,,2013-07-01 23:00:00,
2013-07-01 17:00:00,79.0,57.0,-100.00,North,0,0.0,3.0,47,0.01,,,-99.99,,2013-07-02 00:00:00,
2013-07-01 18:00:00,76.0,59.0,-100.00,North,-999,0.0,0.0,55,0.00,,,-99.99,,2013-07-02 01:00:00,
2013-07-01 19:00:00,72.0,59.0,-100.00,North,0,0.0,2.0,64,0.00,,,-99.99,,2013-07-02 02:00:00,
2013-07-01 19:53:00,72.0,59.0,-100.00,North,0,0.0,2.0,64,0.00,,,-99.99,,2013-07-02 02:53:00,
2013-07-01 20:00:00,69.0,60.0,-100.00,North,0,0.0,1.0,72,0.00,,,-99.99,,2013-07-02 03:00:00,
2013-07-01 21:00:00,66.0,59.0,-100.00,North,-999,0.0,0.0,78,0.00,,,-99.99,,2013-07-02 04:00:00,
2013-07-01 21:53:00,66.0,59.0,-100.00,North,-999,0.0,0.0,78,0.00,,,-99.99,,2013-07-02 04:53:00,
2013-07-01 22:00:00,63.0,58.0,-100.00,North,-999,0.0,0.0,83,0.00,,,-99.99,,2013-07-02 05:00:00,
2013-07-01 22:53:00,63.0,58.0,-100.00,North,-999,0.0,0.0,83,0.00,,,-99.99,,2013-07-02 05:53:00,
2013-07-01 23:00:00,62.0,59.0,-100.00,North,0,0.0,1.0,89,0.00,,,-99.99,,2013-07-02 06:00:00,
2013-07-01 23:53:00,62.0,59.0,-100.00,North,0,0.0,1.0,89,0.00,,,-99.99,,2013-07-02 06:53:00,